Nanaimo Airport

CYCD · British Columbia, Canada

METAR history CYCD · Nanaimo Airport

Below you see METARs of the last few days. Select a year to browse through older METARs, from the year 2007 onwards.

February 4, 2023

Time Code Weather Temp. Visibility Ceiling Wind METAR/SPECI
06:00
V
4 °C 10 mi 4,200 ft 250° 250° 4 kt METAR CYCD 041400Z 25004KT 240V300 10SM SCT010 BKN042 OVC100 04/03 A2996 RMK SC4SC2AC2 SLP147

February 3, 2023

Time Code Weather Temp. Visibility Ceiling Wind METAR/SPECI
21:00
V
7 °C 10 mi 5,500 ft 170° 170° 10 kt METAR CYCD 040500Z 17010KT 160V220 10SM -RA OVC055 07/05 A2985 RMK SC8 LAST STFD OBS/NEXT041400Z SLP111
20:27
V
7 °C 8 mi 5,000 ft 160° 160° 12 kt METAR CYCD 040427Z 16012KT 8SM -RA FEW008 SCT021 BKN050 OVC080 07/06 A2982 RMK SF2SC2SC2AC2 PRESRR SLP102
20:00
I
7 °C 8 mi 800 ft 190° 190° 3 kt METAR CYCD 040400Z 19003KT 170V300 8SM -RA VCFG BKN008 OVC021 07/06 A2980 RMK SF5SC3 SLP093
19:51
I
7 °C 8 mi 800 ft Var 000° 0 kt METAR CYCD 040351Z 00000KT 8SM -RA VCFG BKN008 OVC032 07/06 A2979 RMK SF5SC3 SLP092
19:00
V
7 °C 15 mi 3,800 ft 150° 150° 12 kt METAR CYCD 040300Z 15012KT 100V180 15SM -RA FEW012 BKN038 OVC074 07/06 A2977 RMK SF1SC5AC2 SLP085
18:48
V
7 °C 15 mi 3,300 ft 100° 100° 4 kt METAR CYCD 040248Z 10004KT 080V150 15SM -RA FEW012 BKN033 OVC072 07/06 A2977 RMK SF2SC4AC2 SLP083
18:00
V
7 °C 15 mi 4,400 ft 160° 160° 7 kt METAR CYCD 040200Z 16007KT 15SM FEW012 BKN044 BKN240 07/05 A2976 RMK SF1SC5CI1 SLP081
17:54
V
7 °C 10 mi 4,300 ft 140° 140° 9 kt METAR CYCD 040154Z 14009KT 10SM FEW015 BKN043 BKN240 07/05 A2976 RMK SF1SC5CI1 SLP080
17:00
V
6 °C 15 mi 3,800 ft Var 000° 0 kt METAR CYCD 040100Z 00000KT 15SM VCFG FEW012 BKN038 BKN220 06/05 A2973 RMK SF1SC5CI1 INTMT -RA SLP070
16:00
V
7 °C 8 mi 3,200 ft 130° 130° 9 - 19 kt METAR CYCD 040000Z 13009G19KT 8SM -RA FEW012 BKN032 BKN045 07/05 A2970 RMK SF2SC3SC2 SLP060
15:00
V
7 °C 8 mi 3,300 ft 120° 120° 14 - 22 kt METAR CYCD 032300Z 12014G22KT 8SM -RA FEW015 BKN033 BKN052 07/05 A2969 RMK SF2SC4SC1 SLP057
14:00
V
6 °C 8 mi 4,400 ft 100° 100° 4 kt METAR CYCD 032200Z 10004KT 070V150 8SM -RA SCT022 BKN044 OVC076 06/03 A2969 RMK SC4SC3AC1 SLP058
13:00
V
6 °C 10 mi 5,100 ft 130° 130° 8 kt METAR CYCD 032100Z 13008KT 100V160 10SM -RA FEW036 BKN051 OVC086 06/03 A2973 RMK SC2SC4AC2 SLP071
12:00
V
5 °C 20 mi 3,600 ft Var Var 2 kt METAR CYCD 032000Z VRB02KT 20SM -RA BKN036 OVC075 05/03 A2975 RMK SC5AC3 SLP076
11:32
V
4 °C 20 mi 3,600 ft Var Var 3 kt METAR CYCD 031932Z VRB03KT 20SM -RA BKN036 OVC080 04/03 A2977 RMK SC6AC2 SLP084
11:00
V
4 °C 20 mi 6,300 ft Var 000° 0 kt METAR CYCD 031900Z 00000KT 20SM BKN063 OVC090 04/03 A2977 RMK SC6AC2 SLP083
10:00
V
3 °C 25 mi 10,000 ft 140° 140° 3 kt METAR CYCD 031800Z 14003KT 080V160 25SM OVC100 03/02 A2978 RMK AC8 SLP087
09:00
V
2 °C 25 mi 10,000 ft Var Var 2 kt METAR CYCD 031700Z VRB02KT 25SM BKN100 OVC150 02/01 A2980 RMK AC5AC3 SLP093
08:00
V
1 °C 15 mi 9,000 ft Var 000° 0 kt METAR CYCD 031600Z 00000KT 15SM BKN090 OVC170 01/01 A2981 RMK AC5AC3 SLP097
07:00
V
1 °C 15 mi 9,000 ft 190° 190° 3 kt METAR CYCD 031500Z 19003KT 160V230 15SM OVC090 01/01 A2981 RMK AC8 SLP098
06:00
V
1 °C 15 mi 11,000 ft 230° 230° 3 kt METAR CYCD 031400Z 23003KT 180V260 15SM OVC110 01/01 A2983 RMK AC8 SLP105

February 2, 2023

Time Code Weather Temp. Visibility Ceiling Wind METAR/SPECI
21:00
V
3 °C 15 mi 6,800 ft 250° 250° 2 kt METAR CYCD 030500Z 25002KT 15SM OVC068 03/02 A3005 RMK AC8 LAST STFD OBS/NEXT 031400Z SLP179
20:00
V
2 °C 15 mi 7,100 ft Var Var 2 kt METAR CYCD 030400Z VRB02KT 15SM OVC071 02/01 A3005 RMK AC8 SLP179
19:00
V
3 °C 15 mi 20,000 ft Var Var 2 kt METAR CYCD 030300Z VRB02KT 15SM FEW060 BKN200 03/02 A3006 RMK SC2CI4 SLP183
18:00
V
5 °C 25 mi 6,300 ft Var 000° 0 kt METAR CYCD 030200Z 00000KT 25SM OVC063 05/03 A3006 RMK SC8 SLP182
17:00
V
6 °C 25 mi 6,300 ft 140° 140° 2 kt METAR CYCD 030100Z 14002KT 25SM OVC063 06/02 A3008 RMK SC8 SLP188
16:00
V
7 °C 25 mi 6,700 ft 160° 160° 3 kt METAR CYCD 030000Z 16003KT 150V220 25SM OVC067 07/02 A3009 RMK AC8 SLP191
15:00
V
6 °C 25 mi 16,000 ft Var Var 2 kt METAR CYCD 022300Z VRB02KT 25SM SCT065 OVC160 06/02 A3010 RMK SC4AC4 SLP196
14:00
V
6 °C 25 mi 6,500 ft 170° 170° 3 kt METAR CYCD 022200Z 17003KT 030V180 25SM FEW016 BKN065 OVC160 06/01 A3011 RMK SC1SC5AC2 SLP198
13:00
V
6 °C 20 mi 6,400 ft 090° 090° 6 kt METAR CYCD 022100Z 09006KT 20SM FEW016 BKN064 OVC120 06/02 A3013 RMK SC2SC4AC2 SLP204
12:00
V
6 °C 25 mi 5,000 ft 080° 080° 4 kt METAR CYCD 022000Z 08004KT 25SM BKN050 BKN068 OVC120 06/03 A3014 RMK SC5AC2AC1 SLP208
11:00
V
5 °C 25 mi 6,400 ft 040° 040° 3 kt METAR CYCD 021900Z 04003KT 360V070 25SM SCT045 BKN064 OVC200 05/03 A3015 RMK SC3SC3CI2 SLP212
10:00
V
3 °C 25 mi 6,500 ft 280° 280° 3 kt METAR CYCD 021800Z 28003KT 240V310 25SM FEW046 BKN065 OVC200 03/02 A3014 RMK SC2SC4CI2 SLP208
09:00
V
0 °C 25 mi 6,500 ft Var 000° 0 kt METAR CYCD 021700Z 00000KT 25SM FEW044 BKN065 OVC200 00/M00 A3014 RMK SC2SC3CI3 SLP209
08:00
V
0 °C 25 mi 18,000 ft Var 000° 0 kt METAR CYCD 021600Z 00000KT 25SM SCT047 BKN180 OVC200 00/M00 A3012 RMK SC3AC3CI2 SLP203
07:00
V
1 °C 15 mi 4,100 ft 250° 250° 4 kt METAR CYCD 021500Z 25004KT 15SM BKN041 BKN180 OVC210 01/00 A3011 RMK SC5AC1CI2 SLP200
06:00
V
0 °C 15 mi 18,000 ft Var Var 2 kt METAR CYCD 021400Z VRB02KT 15SM FEW120 OVC180 M00/M01 A3010 RMK AC2AC6 SLP197

We and third parties follow your internet behavior on our website with cookies. If you continue, we assume you agree with our cookie policy.